Time;durP1;ratioP1;P1;durP2;ratioP2;P2;SDS_P1;SDS_P2;PMS_P1;PMS_P2;Temp;Humidity;BMP_temperature;BMP_pressure;BME280_temperature;BME280_humidity;BME280_pressure;Samples;Min_cycle;Max_cycle;Signal;HPM_P1;HPM_P2
2022/08/30 00:01:05;;;;;;;;;;;15.50;99.90;;;;;;5072404;28;19924;-67
2022/08/30 00:03:41;;;;;;;;;;;15.40;99.90;;;;;;5055449;28;19924;-67
2022/08/30 00:06:08;;;;;;;;;;;15.40;99.90;;;;;;5072461;28;20313;-67
2022/08/30 00:08:34;;;;;;;;;;;15.40;99.90;;;;;;5055630;28;19975;-67
2022/08/30 00:11:01;;;;;;;;;;;15.40;99.90;;;;;;5072223;28;19924;-67
2022/08/30 00:13:26;;;;;;;;;;;15.40;99.90;;;;;;5072027;28;19975;-67
2022/08/30 00:15:52;;;;;;;;;;;15.40;99.90;;;;;;5071811;28;19963;-67
2022/08/30 00:18:18;;;;;;;;;;;15.40;99.90;;;;;;5073040;28;19924;-67
2022/08/30 00:20:45;;;;;;;;;;;15.40;99.90;;;;;;5071456;28;19928;-67
2022/08/30 00:23:10;;;;;;;;;;;15.40;99.90;;;;;;5071561;28;20385;-67
2022/08/30 00:25:36;;;;;;;;;;;15.50;99.90;;;;;;5072752;28;19940;-67
2022/08/30 00:28:02;;;;;;;;;;;15.50;99.90;;;;;;5071548;28;19970;-67
2022/08/30 00:30:27;;;;;;;;;;;15.50;99.90;;;;;;5072091;28;19925;-67
2022/08/30 00:32:53;;;;;;;;;;;15.50;99.90;;;;;;5071384;28;20428;-67
2022/08/30 00:35:19;;;;;;;;;;;15.50;99.90;;;;;;5071377;28;19924;-67
2022/08/30 00:37:45;;;;;;;;;;;15.60;99.90;;;;;;5072181;28;19924;-67
2022/08/30 00:40:11;;;;;;;;;;;15.60;99.90;;;;;;5074424;28;19928;-67
2022/08/30 00:42:37;;;;;;;;;;;15.60;99.90;;;;;;5074454;28;20326;-67
2022/08/30 00:45:20;;;;;;;;;;;15.60;99.90;;;;;;5074227;28;19924;-67
2022/08/30 00:47:46;;;;;;;;;;;15.60;99.90;;;;;;5074035;28;19985;-67
2022/08/30 00:50:12;;;;;;;;;;;15.60;99.90;;;;;;5074243;28;20373;-66
2022/08/30 00:52:40;;;;;;;;;;;15.60;99.90;;;;;;5074141;28;19931;-66
2022/08/30 00:55:06;;;;;;;;;;;15.60;99.90;;;;;;5074581;28;19924;-66
2022/08/30 00:57:33;;;;;;;;;;;15.50;99.90;;;;;;5074339;28;20467;-66
2022/08/30 00:59:58;;;;;;;;;;;15.50;99.90;;;;;;5074420;28;20157;-66
2022/08/30 01:02:26;;;;;;;;;;;15.50;99.90;;;;;;5074338;28;19928;-66
2022/08/30 01:04:53;;;;;;;;;;;15.50;99.90;;;;;;5074662;28;20005;-66
2022/08/30 01:07:18;;;;;;;;;;;15.50;99.90;;;;;;5074565;28;20353;-66
2022/08/30 01:09:45;;;;;;;;;;;15.50;99.90;;;;;;5074522;28;19924;-66
2022/08/30 01:12:11;;;;;;;;;;;15.50;99.90;;;;;;5074549;28;19924;-66
2022/08/30 01:14:37;;;;;;;;;;;15.40;99.90;;;;;;5057935;28;19932;-66
2022/08/30 01:17:03;;;;;;;;;;;15.40;99.90;;;;;;5092894;28;20289;-66
2022/08/30 01:19:50;;;;;;;;;;;15.30;99.90;;;;;;5074700;28;20026;-66
2022/08/30 01:22:25;;;;;;;;;;;15.20;99.90;;;;;;5074438;28;19920;-66
2022/08/30 01:24:52;;;;;;;;;;;15.30;99.90;;;;;;5057874;28;20005;-66
2022/08/30 01:27:17;;;;;;;;;;;15.20;99.90;;;;;;5074616;28;19926;-66
2022/08/30 01:29:43;;;;;;;;;;;15.20;99.90;;;;;;5057978;28;19923;-66
2022/08/30 01:32:17;;;;;;;;;;;15.10;99.90;;;;;;5074212;28;19968;-66
2022/08/30 01:34:43;;;;;;;;;;;15.10;99.90;;;;;;5074414;28;19978;-66
2022/08/30 01:37:09;;;;;;;;;;;15.10;99.90;;;;;;5074205;28;19987;-66
2022/08/30 01:39:34;;;;;;;;;;;15.20;99.90;;;;;;5074176;28;20441;-66
2022/08/30 01:42:00;;;;;;;;;;;15.10;99.90;;;;;;5074153;28;19924;-66
2022/08/30 01:44:26;;;;;;;;;;;15.10;99.90;;;;;;5057128;28;19924;-66
2022/08/30 01:46:51;;;;;;;;;;;15.10;99.90;;;;;;5073546;28;20280;-66
2022/08/30 01:49:18;;;;;;;;;;;15.10;99.90;;;;;;5073141;28;19973;-66
2022/08/30 01:51:43;;;;;;;;;;;15.10;99.90;;;;;;5091472;28;19928;-66
2022/08/30 01:54:09;;;;;;;;;;;15.00;99.90;;;;;;5073142;28;19928;-66
2022/08/30 01:56:35;;;;;;;;;;;15.00;99.90;;;;;;5073877;28;19978;-66
2022/08/30 01:59:00;;;;;;;;;;;15.00;99.90;;;;;;5073352;28;19927;-66
2022/08/30 02:01:27;;;;;;;;;;;15.10;99.90;;;;;;5073440;28;20407;-66
2022/08/30 02:03:53;;;;;;;;;;;15.10;99.90;;;;;;5073091;28;19932;-66
2022/08/30 02:06:19;;;;;;;;;;;15.10;99.90;;;;;;5073736;28;20312;-66
2022/08/30 02:08:45;;;;;;;;;;;15.10;99.90;;;;;;5073148;28;19924;-66
2022/08/30 02:11:11;;;;;;;;;;;15.00;99.90;;;;;;5056646;28;19920;-66
2022/08/30 02:13:37;;;;;;;;;;;15.00;99.90;;;;;;5073528;28;20451;-66
2022/08/30 02:16:04;;;;;;;;;;;15.00;99.90;;;;;;5074193;28;19931;-66
2022/08/30 02:18:31;;;;;;;;;;;15.00;99.90;;;;;;5074030;28;20317;-66
2022/08/30 02:20:57;;;;;;;;;;;14.90;99.90;;;;;;5074955;28;19920;-66
2022/08/30 02:23:22;;;;;;;;;;;14.90;99.90;;;;;;5077905;28;19920;-66
2022/08/30 02:25:47;;;;;;;;;;;14.90;99.90;;;;;;5078186;28;20247;-66
2022/08/30 02:28:14;;;;;;;;;;;14.90;99.90;;;;;;5077878;28;19969;-66
2022/08/30 02:30:40;;;;;;;;;;;14.90;99.90;;;;;;5078043;28;20492;-66
2022/08/30 02:33:06;;;;;;;;;;;14.90;99.90;;;;;;5078063;28;19928;-66
2022/08/30 02:35:31;;;;;;;;;;;14.90;99.90;;;;;;5077659;28;19998;-66
2022/08/30 02:37:57;;;;;;;;;;;14.90;99.90;;;;;;5077582;28;20408;-66
2022/08/30 02:40:22;;;;;;;;;;;14.90;99.90;;;;;;5060813;28;19973;-66
2022/08/30 02:42:48;;;;;;;;;;;14.80;99.90;;;;;;5095862;28;19978;-66
2022/08/30 02:45:14;;;;;;;;;;;14.80;99.90;;;;;;5060785;28;19922;-66
2022/08/30 02:47:40;;;;;;;;;;;14.80;99.90;;;;;;5077766;28;20555;-66
2022/08/30 02:50:06;;;;;;;;;;;14.70;99.90;;;;;;5095738;28;19920;-66
2022/08/30 02:52:31;;;;;;;;;;;14.70;99.90;;;;;;5077372;28;19950;-66
2022/08/30 02:54:58;;;;;;;;;;;14.60;99.90;;;;;;5077321;28;20366;-66
2022/08/30 02:57:24;;;;;;;;;;;14.60;99.90;;;;;;5077355;28;20409;-66
2022/08/30 02:59:49;;;;;;;;;;;14.60;99.90;;;;;;5077171;28;19924;-66
2022/08/30 03:02:15;;;;;;;;;;;14.60;99.90;;;;;;5077145;28;20014;-66
2022/08/30 03:04:43;;;;;;;;;;;14.50;99.90;;;;;;5095483;28;19924;-66
2022/08/30 03:07:08;;;;;;;;;;;14.50;99.90;;;;;;5095656;28;20567;-66
2022/08/30 03:09:34;;;;;;;;;;;14.50;99.90;;;;;;5077221;28;19924;-66
2022/08/30 03:12:00;;;;;;;;;;;14.40;99.90;;;;;;5077027;28;19920;-66
2022/08/30 03:14:26;;;;;;;;;;;14.30;99.90;;;;;;5060122;28;19924;-66
2022/08/30 03:16:52;;;;;;;;;;;14.30;99.90;;;;;;5077287;28;19924;-66
2022/08/30 03:19:18;;;;;;;;;;;14.10;99.90;;;;;;5076879;28;19942;-66
2022/08/30 03:21:43;;;;;;;;;;;14.00;99.90;;;;;;5077323;28;19930;-66
2022/08/30 03:24:09;;;;;;;;;;;14.00;99.90;;;;;;5076724;28;19924;-66
2022/08/30 03:26:35;;;;;;;;;;;14.00;99.90;;;;;;5076694;28;19920;-66
2022/08/30 03:29:01;;;;;;;;;;;14.00;99.90;;;;;;5076833;28;19973;-66
2022/08/30 03:31:26;;;;;;;;;;;13.90;99.90;;;;;;5076649;28;19924;-66
2022/08/30 03:33:52;;;;;;;;;;;13.90;99.90;;;;;;5093596;28;19924;-66
2022/08/30 03:36:18;;;;;;;;;;;13.90;99.90;;;;;;5076605;28;19920;-66
2022/08/30 03:38:43;;;;;;;;;;;13.80;99.90;;;;;;5076400;28;19924;-66
2022/08/30 03:41:09;;;;;;;;;;;13.80;99.90;;;;;;5076322;28;20405;-66
2022/08/30 03:43:34;;;;;;;;;;;13.80;99.90;;;;;;5076456;28;19927;-66
2022/08/30 03:46:00;;;;;;;;;;;13.70;99.90;;;;;;5076362;28;19924;-66
2022/08/30 03:48:26;;;;;;;;;;;13.70;99.90;;;;;;5076655;28;20019;-66
2022/08/30 03:50:52;;;;;;;;;;;13.70;99.90;;;;;;5076367;28;19943;-66
2022/08/30 03:53:17;;;;;;;;;;;13.60;99.90;;;;;;5076298;28;20565;-66
2022/08/30 03:55:43;;;;;;;;;;;13.60;99.90;;;;;;5059535;28;19920;-66
2022/08/30 03:58:08;;;;;;;;;;;13.60;99.90;;;;;;5076462;28;19936;-66
2022/08/30 04:00:34;;;;;;;;;;;13.50;99.90;;;;;;5076170;28;20366;-66
2022/08/30 04:03:00;;;;;;;;;;;13.50;99.90;;;;;;5076142;28;19920;-66
2022/08/30 04:05:26;;;;;;;;;;;13.40;99.90;;;;;;5059283;28;20393;-66
2022/08/30 04:07:51;;;;;;;;;;;13.30;99.90;;;;;;5076311;28;19943;-66
2022/08/30 04:10:20;;;;;;;;;;;13.30;99.90;;;;;;5075994;28;20636;-66
2022/08/30 04:12:46;;;;;;;;;;;13.30;99.90;;;;;;5075953;28;19920;-66
2022/08/30 04:15:12;;;;;;;;;;;13.20;99.90;;;;;;5075707;28;19935;-66
2022/08/30 04:17:37;;;;;;;;;;;13.20;99.90;;;;;;5093949;28;19920;-66
2022/08/30 04:20:03;;;;;;;;;;;13.20;99.90;;;;;;5075704;28;20405;-66
2022/08/30 04:22:29;;;;;;;;;;;13.20;99.90;;;;;;5075837;28;19931;-66
2022/08/30 04:24:54;;;;;;;;;;;13.20;99.90;;;;;;5093958;28;20014;-66
2022/08/30 04:27:19;;;;;;;;;;;13.10;99.90;;;;;;5075573;28;19956;-66
2022/08/30 04:29:46;;;;;;;;;;;13.10;99.90;;;;;;5075756;28;20374;-66
2022/08/30 04:32:12;;;;;;;;;;;13.00;99.90;;;;;;5075445;28;19920;-66
2022/08/30 04:34:37;;;;;;;;;;;13.00;99.90;;;;;;5093771;28;19931;-66
2022/08/30 04:37:03;;;;;;;;;;;12.90;99.90;;;;;;5093736;28;19947;-66
2022/08/30 04:39:28;;;;;;;;;;;12.90;99.90;;;;;;5093351;28;19927;-66
2022/08/30 04:41:54;;;;;;;;;;;12.80;99.90;;;;;;5075105;28;19924;-66
2022/08/30 04:44:20;;;;;;;;;;;12.80;99.90;;;;;;5057896;28;19927;-66
2022/08/30 04:46:46;;;;;;;;;;;12.80;99.90;;;;;;5058252;28;19919;-66
2022/08/30 04:49:11;;;;;;;;;;;12.80;99.90;;;;;;5057917;28;19920;-66
2022/08/30 04:51:37;;;;;;;;;;;12.80;99.90;;;;;;5074061;28;20007;-66
2022/08/30 04:54:02;;;;;;;;;;;12.70;99.90;;;;;;5074330;28;19976;-66
2022/08/30 04:56:28;;;;;;;;;;;12.70;99.90;;;;;;5074189;28;19924;-66
2022/08/30 04:58:54;;;;;;;;;;;12.60;99.90;;;;;;5058476;28;19924;-67
2022/08/30 05:01:21;;;;;;;;;;;12.60;99.90;;;;;;5093176;28;19969;-67
2022/08/30 05:03:47;;;;;;;;;;;12.60;99.90;;;;;;5074952;28;19924;-67
2022/08/30 05:06:13;;;;;;;;;;;12.60;99.90;;;;;;5058096;28;19924;-67
2022/08/30 05:08:39;;;;;;;;;;;12.60;99.90;;;;;;5074688;28;19931;-67
2022/08/30 05:11:05;;;;;;;;;;;12.60;99.90;;;;;;5074437;28;19924;-67
2022/08/30 05:13:31;;;;;;;;;;;12.60;99.90;;;;;;5074659;28;19931;-67
2022/08/30 05:15:56;;;;;;;;;;;12.60;99.90;;;;;;5057708;28;20328;-67
2022/08/30 05:18:22;;;;;;;;;;;12.70;99.90;;;;;;5057922;28;19920;-67
2022/08/30 05:20:47;;;;;;;;;;;12.60;99.90;;;;;;5074643;28;19927;-66
2022/08/30 05:23:13;;;;;;;;;;;12.60;99.90;;;;;;5074437;28;19924;-66
2022/08/30 05:25:39;;;;;;;;;;;12.60;99.90;;;;;;5074451;28;19928;-66
2022/08/30 05:28:05;;;;;;;;;;;12.60;99.90;;;;;;5074190;28;19920;-66
2022/08/30 05:30:31;;;;;;;;;;;12.60;99.90;;;;;;5074722;28;20277;-66
2022/08/30 05:32:57;;;;;;;;;;;12.60;99.90;;;;;;5074287;28;19930;-66
2022/08/30 05:35:22;;;;;;;;;;;12.60;99.90;;;;;;5074536;28;19928;-66
2022/08/30 05:37:49;;;;;;;;;;;12.70;99.90;;;;;;5074223;28;20023;-66
2022/08/30 05:40:17;;;;;;;;;;;12.70;99.90;;;;;;5074145;28;19924;-66
2022/08/30 05:42:43;;;;;;;;;;;12.80;99.90;;;;;;5074108;28;19927;-66
2022/08/30 05:45:09;;;;;;;;;;;12.90;99.90;;;;;;5092469;28;19970;-66
2022/08/30 05:47:35;;;;;;;;;;;13.90;99.90;;;;;;5057756;28;19920;-66
2022/08/30 05:50:01;;;;;;;;;;;15.30;99.90;;;;;;5057174;28;20373;-66
2022/08/30 05:52:26;;;;;;;;;;;16.50;99.90;;;;;;5092092;28;19955;-66
2022/08/30 05:54:53;;;;;;;;;;;17.70;99.90;;;;;;5073852;28;19924;-66
2022/08/30 05:57:19;;;;;;;;;;;18.90;99.90;;;;;;5091575;28;19920;-66
2022/08/30 05:59:44;;;;;;;;;;;19.80;99.90;;;;;;5074361;28;19926;-67
2022/08/30 06:02:10;;;;;;;;;;;20.00;99.90;;;;;;5092190;28;19920;-67
2022/08/30 06:04:36;;;;;;;;;;;20.40;99.90;;;;;;5073491;28;19924;-67
2022/08/30 06:07:02;;;;;;;;;;;20.70;99.90;;;;;;5056605;28;19931;-67
2022/08/30 06:09:27;;;;;;;;;;;20.90;99.90;;;;;;5072774;28;19927;-67
2022/08/30 06:11:53;;;;;;;;;;;21.50;99.90;;;;;;5056177;28;20289;-67
2022/08/30 06:14:19;;;;;;;;;;;;;;;;;;5056049;28;19981;-67
2022/08/30 06:16:45;;;;;;;;;;;22.80;96.40;;;;;;5091781;28;19924;-67
2022/08/30 06:19:11;;;;;;;;;;;;;;;;;;5091354;28;19931;-67
2022/08/30 06:21:38;;;;;;;;;;;23.40;95.00;;;;;;5073093;28;19920;-67
2022/08/30 06:24:04;;;;;;;;;;;23.70;94.30;;;;;;5073077;28;20019;-67
2022/08/30 06:26:30;;;;;;;;;;;24.10;93.40;;;;;;5072741;28;19920;-67
2022/08/30 06:28:56;;;;;;;;;;;24.90;92.30;;;;;;5073330;28;19920;-67
2022/08/30 06:31:23;;;;;;;;;;;24.40;93.40;;;;;;5091195;28;19948;-67
2022/08/30 06:33:48;;;;;;;;;;;24.70;92.40;;;;;;5073551;28;19926;-67
2022/08/30 06:36:16;;;;;;;;;;;25.40;90.40;;;;;;5073928;28;20381;-67
2022/08/30 06:38:42;;;;;;;;;;;25.30;90.50;;;;;;5091357;28;19945;-67
2022/08/30 06:41:08;;;;;;;;;;;25.80;90.40;;;;;;5091828;28;19928;-67
2022/08/30 06:43:34;;;;;;;;;;;25.40;90.20;;;;;;5073423;28;19924;-67
2022/08/30 06:46:04;;;;;;;;;;;25.60;90.70;;;;;;5073413;28;19920;-67
2022/08/30 06:48:30;;;;;;;;;;;25.40;90.30;;;;;;5073387;28;19942;-67
2022/08/30 06:50:55;;;;;;;;;;;25.80;90.90;;;;;;5073560;28;19924;-67
2022/08/30 06:53:21;;;;;;;;;;;26.20;88.40;;;;;;5056596;28;19924;-69
2022/08/30 06:55:56;;;;;;;;;;;26.60;87.90;;;;;;5073682;28;20495;-70
2022/08/30 06:58:21;;;;;;;;;;;26.10;86.60;;;;;;5073286;28;19920;-69
2022/08/30 07:00:47;;;;;;;;;;;25.80;87.20;;;;;;5073449;28;20367;-70
2022/08/30 07:03:12;;;;;;;;;;;26.90;87.40;;;;;;5073585;28;20496;-70
2022/08/30 07:05:38;;;;;;;;;;;27.00;85.30;;;;;;5091592;28;20466;-70
2022/08/30 07:08:03;;;;;;;;;;;27.10;87.40;;;;;;5075900;28;19924;-70
2022/08/30 07:10:29;;;;;;;;;;;27.10;83.40;;;;;;5076995;28;19935;-70
2022/08/30 07:12:54;;;;;;;;;;;25.60;83.80;;;;;;5076880;28;19924;-69
2022/08/30 07:15:21;;;;;;;;;;;25.50;85.10;;;;;;5076917;28;19924;-70
2022/08/30 07:20:31;;;;;;;;;;;25.50;85.50;;;;;;5095109;28;20273;-70
2022/08/30 07:22:57;;;;;;;;;;;26.10;84.50;;;;;;5076733;28;19920;-70
2022/08/30 07:25:22;;;;;;;;;;;25.30;85.00;;;;;;5076947;28;19946;-70
2022/08/30 07:27:50;;;;;;;;;;;26.10;84.20;;;;;;5076863;28;19969;-70
2022/08/30 07:30:16;;;;;;;;;;;26.20;84.60;;;;;;5076715;28;19927;-70
2022/08/30 07:32:41;;;;;;;;;;;26.70;83.30;;;;;;5076597;28;19920;-70
2022/08/30 07:35:07;;;;;;;;;;;26.40;82.40;;;;;;5094642;28;19932;-70
2022/08/30 07:37:32;;;;;;;;;;;27.50;80.70;;;;;;5094594;28;19924;-70
2022/08/30 07:39:58;;;;;;;;;;;26.20;78.80;;;;;;5076302;28;19966;-69
2022/08/30 07:42:23;;;;;;;;;;;25.60;81.30;;;;;;5076103;28;19924;-69
2022/08/30 07:44:49;;;;;;;;;;;26.10;80.80;;;;;;5076077;28;19930;-69
2022/08/30 07:47:15;;;;;;;;;;;25.80;81.50;;;;;;5076345;28;19999;-69
2022/08/30 07:49:41;;;;;;;;;;;25.20;81.40;;;;;;5075935;28;19924;-69
2022/08/30 07:52:07;;;;;;;;;;;23.60;83.20;;;;;;5094242;28;19924;-69
2022/08/30 07:54:32;;;;;;;;;;;22.70;85.90;;;;;;5078476;22;19931;-69
2022/08/30 07:56:58;;;;;;;;;;;22.30;88.10;;;;;;5072445;28;19969;-69
2022/08/30 07:59:24;;;;;;;;;;;22.30;89.50;;;;;;5072484;28;19925;-69
2022/08/30 08:01:49;;;;;;;;;;;21.80;87.70;;;;;;5072788;28;20377;-69
2022/08/30 08:04:15;;;;;;;;;;;20.90;89.50;;;;;;5073634;28;19931;-69
2022/08/30 08:06:40;;;;;;;;;;;21.00;90.80;;;;;;5073814;28;19928;-69
2022/08/30 08:09:06;;;;;;;;;;;20.60;90.90;;;;;;5072410;28;19928;-69
2022/08/30 08:11:32;;;;;;;;;;;20.40;90.80;;;;;;5055663;28;19920;-69
2022/08/30 08:13:58;;;;;;;;;;;20.20;91.60;;;;;;5072441;28;20481;-69
2022/08/30 08:16:24;;;;;;;;;;;20.50;91.30;;;;;;5073566;28;19927;-68
2022/08/30 08:18:50;;;;;;;;;;;20.10;90.50;;;;;;5071526;28;20428;-69
2022/08/30 08:21:16;;;;;;;;;;;20.00;90.80;;;;;;5072421;28;19927;-69
2022/08/30 08:23:41;;;;;;;;;;;20.00;91.40;;;;;;5073702;28;19920;-69
2022/08/30 08:26:07;;;;;;;;;;;20.20;92.60;;;;;;5072241;28;19920;-69
2022/08/30 08:28:32;;;;;;;;;;;19.80;91.40;;;;;;5072196;28;19924;-68
2022/08/30 08:30:57;;;;;;;;;;;20.10;91.10;;;;;;5073250;28;19924;-68
2022/08/30 08:33:23;;;;;;;;;;;20.30;92.80;;;;;;5071909;28;19950;-68
2022/08/30 08:35:48;;;;;;;;;;;20.20;91.50;;;;;;5071980;28;19999;-68
2022/08/30 08:38:14;;;;;;;;;;;20.10;91.10;;;;;;5071934;28;19925;-68
2022/08/30 08:40:58;;;;;;;;;;;20.10;91.20;;;;;;5073194;28;19958;-68
2022/08/30 08:43:25;;;;;;;;;;;19.90;91.80;;;;;;5073121;28;20024;-68
2022/08/30 08:45:50;;;;;;;;;;;20.20;91.60;;;;;;5071528;28;19955;-68
2022/08/30 08:48:27;;;;;;;;;;;20.30;92.70;;;;;;5072911;28;19920;-68
2022/08/30 08:53:36;;;;;;;;;;;20.20;91.70;;;;;;5071486;28;19928;-69
2022/08/30 08:56:09;;;;;;;;;;;20.20;92.20;;;;;;5071914;28;19921;-68
2022/08/30 08:58:45;;;;;;;;;;;20.00;91.10;;;;;;5071833;28;19924;-68
2022/08/30 09:01:12;;;;;;;;;;;20.10;91.30;;;;;;5071506;28;19920;-68
2022/08/30 09:03:38;;;;;;;;;;;20.20;90.90;;;;;;5071413;28;19970;-68
2022/08/30 09:06:09;;;;;;;;;;;20.30;91.80;;;;;;5054989;28;19928;-68
2022/08/30 09:08:35;;;;;;;;;;;20.30;91.40;;;;;;5072820;28;19924;-68
2022/08/30 09:11:04;;;;;;;;;;;20.50;90.30;;;;;;5071233;28;19920;-68
2022/08/30 09:13:29;;;;;;;;;;;20.60;91.40;;;;;;5071312;28;20010;-68
2022/08/30 09:15:56;;;;;;;;;;;20.80;90.30;;;;;;5071303;28;20437;-68
2022/08/30 09:18:40;;;;;;;;;;;20.90;90.70;;;;;;5072414;28;20239;-68
2022/08/30 09:21:06;;;;;;;;;;;20.90;90.90;;;;;;5070915;28;19924;-69
2022/08/30 09:23:32;;;;;;;;;;;21.10;89.50;;;;;;5072625;28;19924;-69
2022/08/30 09:25:59;;;;;;;;;;;21.20;89.80;;;;;;5072343;28;19931;-69
2022/08/30 09:28:27;;;;;;;;;;;21.20;91.30;;;;;;5071277;28;19928;-69
2022/08/30 09:31:01;;;;;;;;;;;21.40;91.50;;;;;;5070332;28;19924;-69
2022/08/30 09:33:27;;;;;;;;;;;21.60;91.50;;;;;;5071440;28;20436;-69
2022/08/30 09:35:53;;;;;;;;;;;21.50;90.40;;;;;;5069792;28;19931;-68
2022/08/30 09:38:32;;;;;;;;;;;21.80;91.30;;;;;;5070345;28;19928;-69
2022/08/30 09:40:58;;;;;;;;;;;21.40;89.00;;;;;;5071732;28;19927;-69
2022/08/30 09:43:33;;;;;;;;;;;21.50;89.30;;;;;;5070201;28;19928;-68
2022/08/30 09:45:58;;;;;;;;;;;21.80;90.50;;;;;;5070227;28;19921;-68
2022/08/30 09:48:43;;;;;;;;;;;22.00;91.20;;;;;;5070062;28;19921;-68
2022/08/30 09:51:09;;;;;;;;;;;22.20;90.50;;;;;;5069771;28;19927;-68
2022/08/30 09:53:37;;;;;;;;;;;22.50;91.00;;;;;;5069580;28;20293;-69
2022/08/30 09:56:09;;;;;;;;;;;22.50;85.20;;;;;;5071131;28;19924;-68
2022/08/30 09:58:53;;;;;;;;;;;22.40;90.20;;;;;;5071178;28;19970;-69
2022/08/30 10:01:21;;;;;;;;;;;22.40;88.40;;;;;;5069749;28;19921;-69
2022/08/30 10:04:06;;;;;;;;;;;22.20;89.10;;;;;;5053032;28;19921;-69
2022/08/30 10:06:43;;;;;;;;;;;22.00;89.60;;;;;;5069803;28;19924;-69
2022/08/30 10:09:17;;;;;;;;;;;22.00;90.90;;;;;;5069973;28;19993;-68
2022/08/30 10:11:43;;;;;;;;;;;21.70;86.60;;;;;;5069812;28;20012;-69
2022/08/30 10:14:24;;;;;;;;;;;21.30;85.30;;;;;;5069811;28;20433;-69
2022/08/30 10:17:13;;;;;;;;;;;20.90;86.00;;;;;;5053122;28;20003;-69
2022/08/30 10:19:44;;;;;;;;;;;20.80;86.50;;;;;;5071256;28;19928;-69
2022/08/30 10:22:13;;;;;;;;;;;21.00;91.60;;;;;;5053065;28;20011;-68
2022/08/30 10:24:42;;;;;;;;;;;21.20;91.00;;;;;;5069909;28;20556;-68
2022/08/30 10:27:10;;;;;;;;;;;21.40;90.20;;;;;;5069882;28;19920;-68
2022/08/30 10:29:35;;;;;;;;;;;21.50;87.40;;;;;;5071139;28;19920;-69
2022/08/30 10:32:04;;;;;;;;;;;21.50;89.10;;;;;;5069625;28;19947;-68
2022/08/30 10:34:59;;;;;;;;;;;21.50;85.80;;;;;;5053945;28;20425;-68
2022/08/30 10:37:25;;;;;;;;;;;21.70;86.90;;;;;;5058165;28;19920;-69
2022/08/30 10:42:57;;;;;;;;;;;21.60;87.90;;;;;;5074013;28;19924;-68
2022/08/30 10:45:23;;;;;;;;;;;21.80;87.90;;;;;;5074099;28;19995;-68
2022/08/30 10:47:59;;;;;;;;;;;21.60;85.00;;;;;;5073913;28;19939;-68
2022/08/30 10:50:27;;;;;;;;;;;21.40;84.80;;;;;;5073945;28;19924;-68
2022/08/30 10:52:55;;;;;;;;;;;21.40;86.50;;;;;;5056895;28;19979;-68
2022/08/30 10:55:25;;;;;;;;;;;21.60;85.10;;;;;;5073953;28;19929;-68
2022/08/30 10:57:51;;;;;;;;;;;21.70;88.70;;;;;;5075291;28;19928;-68
2022/08/30 11:00:23;;;;;;;;;;;21.60;86.20;;;;;;5075299;28;19920;-68
2022/08/30 11:02:48;;;;;;;;;;;22.00;90.10;;;;;;5074969;28;19974;-68
2022/08/30 11:05:33;;;;;;;;;;;22.00;81.90;;;;;;5057421;28;19920;-68
2022/08/30 11:08:17;;;;;;;;;;;22.20;88.40;;;;;;5073945;28;20723;-68
2022/08/30 11:11:04;;;;;;;;;;;22.50;88.90;;;;;;5074983;28;20053;-68
2022/08/30 11:13:33;;;;;;;;;;;22.50;82.70;;;;;;5073471;28;19935;-68
2022/08/30 11:16:07;;;;;;;;;;;22.00;82.40;;;;;;5056751;28;19974;-68
2022/08/30 11:18:44;;;;;;;;;;;21.90;84.20;;;;;;5073346;28;19920;-68
2022/08/30 11:21:15;;;;;;;;;;;21.90;85.40;;;;;;5073381;28;19974;-68
2022/08/30 11:23:55;;;;;;;;;;;22.10;84.40;;;;;;5073184;28;20354;-68
2022/08/30 11:26:39;;;;;;;;;;;22.00;83.00;;;;;;5074677;28;19928;-68
2022/08/30 11:29:06;;;;;;;;;;;22.00;84.10;;;;;;5073109;28;20443;-67
2022/08/30 11:31:36;;;;;;;;;;;21.90;82.90;;;;;;5074596;28;20285;-68
2022/08/30 11:34:02;;;;;;;;;;;21.90;85.30;;;;;;5073155;28;19928;-68
2022/08/30 11:36:27;;;;;;;;;;;22.10;88.80;;;;;;5074570;28;19925;-68
2022/08/30 11:38:53;;;;;;;;;;;22.20;83.40;;;;;;5073115;28;19920;-68
2022/08/30 11:41:35;;;;;;;;;;;22.30;84.50;;;;;;5074580;28;20250;-68
2022/08/30 11:44:11;;;;;;;;;;;22.50;86.70;;;;;;5072914;28;20344;-68
2022/08/30 11:46:38;;;;;;;;;;;22.80;85.40;;;;;;5073034;28;19921;-68
2022/08/30 11:49:04;;;;;;;;;;;22.80;82.00;;;;;;5072716;28;19927;-69
2022/08/30 11:51:37;;;;;;;;;;;22.80;82.10;;;;;;5058440;28;19921;-68
2022/08/30 11:54:12;;;;;;;;;;;22.70;82.10;;;;;;5044297;28;20431;-69
2022/08/30 11:56:47;;;;;;;;;;;22.60;83.90;;;;;;5045732;28;19921;-68
2022/08/30 11:59:31;;;;;;;;;;;22.40;83.20;;;;;;5044074;28;19924;-69
2022/08/30 12:01:57;;;;;;;;;;;22.50;83.80;;;;;;5033335;28;19998;-69
2022/08/30 12:04:23;;;;;;;;;;;22.40;84.20;;;;;;5070520;28;19921;-69
2022/08/30 12:06:59;;;;;;;;;;;22.60;87.80;;;;;;5056741;28;20374;-69
2022/08/30 12:09:25;;;;;;;;;;;22.70;86.80;;;;;;5051008;28;19925;-69
2022/08/30 12:11:58;;;;;;;;;;;22.60;83.70;;;;;;5047937;28;19978;-69
2022/08/30 12:14:46;;;;;;;;;;;22.60;83.00;;;;;;5047955;28;20385;-69
2022/08/30 12:20:12;;;;;;;;;;;22.40;85.00;;;;;;5049993;28;20024;-69
2022/08/30 12:22:39;;;;;;;;;;;22.60;88.10;;;;;;5056319;28;20397;-68
2022/08/30 12:25:13;;;;;;;;;;;22.40;82.90;;;;;;5070781;28;19924;-68
2022/08/30 12:27:38;;;;;;;;;;;22.30;86.20;;;;;;5067214;28;19921;-68
2022/08/30 12:30:05;;;;;;;;;;;22.70;85.40;;;;;;5052191;28;20023;-68
2022/08/30 12:32:32;;;;;;;;;;;22.90;83.40;;;;;;5051413;28;19924;-68
2022/08/30 12:34:58;;;;;;;;;;;23.20;84.30;;;;;;5051866;28;19925;-68
2022/08/30 12:37:26;;;;;;;;;;;23.40;84.60;;;;;;5051812;28;19971;-68
2022/08/30 12:40:00;;;;;;;;;;;23.70;83.90;;;;;;5066738;28;20584;-68
2022/08/30 12:42:28;;;;;;;;;;;23.90;80.60;;;;;;5061727;28;19921;-68
2022/08/30 12:44:56;;;;;;;;;;;24.00;81.20;;;;;;5051851;28;19924;-68
2022/08/30 12:47:25;;;;;;;;;;;24.10;82.50;;;;;;5049780;28;20015;-69
2022/08/30 12:49:51;;;;;;;;;;;24.30;85.80;;;;;;5031725;28;19921;-69
2022/08/30 12:52:28;;;;;;;;;;;24.30;85.70;;;;;;5020933;28;19924;-69
2022/08/30 12:54:54;;;;;;;;;;;24.10;82.50;;;;;;5047263;28;20435;-69
2022/08/30 12:57:39;;;;;;;;;;;23.90;84.30;;;;;;5033339;28;19931;-69
2022/08/30 13:00:06;;;;;;;;;;;24.10;82.40;;;;;;5036544;28;19921;-69
2022/08/30 13:02:43;;;;;;;;;;;24.20;78.50;;;;;;5043490;28;19971;-70
2022/08/30 13:05:29;;;;;;;;;;;24.30;80.90;;;;;;5050883;28;19939;-71
2022/08/30 13:08:07;;;;;;;;;;;24.50;81.90;;;;;;5039796;28;19952;-70
2022/08/30 13:10:32;;;;;;;;;;;24.70;78.20;;;;;;5051882;28;19927;-71
2022/08/30 13:13:02;;;;;;;;;;;24.60;79.10;;;;;;5048255;28;19925;-69
2022/08/30 13:15:32;;;;;;;;;;;24.80;80.40;;;;;;5050860;28;19920;-70
2022/08/30 13:18:18;;;;;;;;;;;24.80;77.30;;;;;;5056785;28;19939;-70
2022/08/30 13:20:45;;;;;;;;;;;24.90;80.10;;;;;;5050206;28;19975;-70
2022/08/30 13:23:19;;;;;;;;;;;25.00;80.40;;;;;;5038498;28;20378;-70
2022/08/30 13:25:45;;;;;;;;;;;24.30;78.50;;;;;;5051191;28;19970;-70
2022/08/30 13:28:10;;;;;;;;;;;23.60;80.10;;;;;;5049841;28;19929;-70
2022/08/30 13:30:36;;;;;;;;;;;23.60;83.30;;;;;;5050816;28;19932;-70
2022/08/30 13:33:02;;;;;;;;;;;23.70;82.20;;;;;;5049864;28;19925;-69
2022/08/30 13:35:28;;;;;;;;;;;23.40;80.00;;;;;;5050452;28;20553;-70
2022/08/30 13:37:54;;;;;;;;;;;23.20;81.00;;;;;;5050575;28;19967;-69
2022/08/30 13:40:20;;;;;;;;;;;23.40;85.00;;;;;;5051724;28;19924;-70
2022/08/30 13:42:46;;;;;;;;;;;23.30;80.10;;;;;;5050602;28;19928;-70
2022/08/30 13:45:12;;;;;;;;;;;22.80;80.70;;;;;;5048236;28;20305;-70
2022/08/30 13:47:38;;;;;;;;;;;22.70;81.20;;;;;;5051318;28;19927;-70
2022/08/30 13:50:04;;;;;;;;;;;23.00;80.60;;;;;;5050600;28;19924;-69
2022/08/30 13:52:29;;;;;;;;;;;23.10;81.30;;;;;;5050401;28;20310;-69
2022/08/30 13:54:55;;;;;;;;;;;23.70;81.50;;;;;;5048215;28;19925;-69
2022/08/30 13:57:23;;;;;;;;;;;23.90;80.90;;;;;;5050574;28;19931;-69
2022/08/30 13:59:48;;;;;;;;;;;23.90;84.30;;;;;;5050542;28;20282;-69
2022/08/30 14:02:14;;;;;;;;;;;23.40;82.30;;;;;;5043368;28;19928;-69
2022/08/30 14:04:39;;;;;;;;;;;23.30;82.90;;;;;;5053843;28;20037;-69
2022/08/30 14:07:05;;;;;;;;;;;22.80;83.80;;;;;;5050119;28;19936;-69
2022/08/30 14:09:30;;;;;;;;;;;22.90;87.50;;;;;;5033657;28;19978;-69
2022/08/30 14:11:56;;;;;;;;;;;22.60;85.10;;;;;;5049570;28;19924;-69
2022/08/30 14:14:23;;;;;;;;;;;22.70;85.00;;;;;;5050307;28;19973;-69
2022/08/30 14:16:49;;;;;;;;;;;23.00;86.00;;;;;;5049449;28;20006;-69
2022/08/30 14:19:14;;;;;;;;;;;23.30;84.30;;;;;;5040186;28;20011;-69
2022/08/30 14:21:40;;;;;;;;;;;23.50;84.90;;;;;;5049246;28;19928;-69
2022/08/30 14:24:06;;;;;;;;;;;23.70;85.20;;;;;;5049998;28;20262;-69
2022/08/30 14:26:38;;;;;;;;;;;24.00;86.20;;;;;;5050816;28;20255;-69
2022/08/30 14:29:05;;;;;;;;;;;24.20;86.00;;;;;;5050102;28;19932;-69
2022/08/30 14:31:31;;;;;;;;;;;24.40;85.60;;;;;;5047710;28;19929;-69
2022/08/30 14:33:56;;;;;;;;;;;24.20;81.20;;;;;;5036567;28;19928;-69